Terminal Aerodrome Forecast
Issued by NWS

Home | Current Version | Previous Version | Text Only | Print | Product List | Glossary On
Versions: 1 2 3 4 5 6 7 8 9 10 11 12 13
000
FTUS46 KLOX 240557 AAA
TAFPMD
TAF AMD
KPMD 240557Z 2406/2506 21007KT P6SM SKC
     FM242000 24014G22KT P6SM SKC
     FM250300 30010KT P6SM SKC
     FM250500 24010KT P6SM SKC=

USA.gov is the U.S. government's official web portal to all federal, state and local government web resources and services.